Hotevilla, Arizona
Current Conditions -  °F | °C
As of 3:56 AM on Monday 20 Oct 2014 (Local Time) from KINW Reporting Station
Clear Clear  
Wind Chill: 44°   Ceiling: Unl
Heat Index: 47°   Visibility: 10mi
Dew Point: 42°   Wind: 7mph
Humidity: 83%   Direction: 130°SE
Pressure: 30.12"   Gusts: NA
Location:  35.93°N, 110.67°W
Report Text: KINW 201056Z AUTO 13006KT 10SM CLR 08/06 A3012 RMK AO2 SLP152 T00830056
Loading
Personal Weather Stations






























Interactive Weather Map
Tropical Storm Tracking
New forecast layout! Learn more

10-Day Weather Forecast

Advertisements
Track Severe Weather on mobile